Time;durP1;ratioP1;P1;durP2;ratioP2;P2;SDS_P1;SDS_P2;PMS_P1;PMS_P2;Temp;Humidity;BMP_temperature;BMP_pressure;BME280_temperature;BME280_humidity;BME280_pressure;Samples;Min_cycle;Max_cycle;Signal;HPM_P1;HPM_P2
2022/05/22 00:00:07;;;;;;;1.95;0.77;;;17.80;91.70;;;;;;174300;28;1958;-71
2022/05/22 00:00:14;;;;;;;1.50;0.70;;;17.80;91.70;;;;;;173838;28;883;-71
2022/05/22 00:00:24;;;;;;;0.93;0.65;;;17.80;91.60;;;;;;172601;28;1592;-72
2022/05/22 00:00:30;;;;;;;0.96;0.60;;;17.80;91.50;;;;;;172960;28;1322;-72
2022/05/22 00:00:36;;;;;;;1.05;0.60;;;17.80;91.50;;;;;;173193;28;1387;-72
2022/05/22 00:00:44;;;;;;;0.98;0.50;;;17.80;91.50;;;;;;173112;28;846;-72
2022/05/22 00:00:49;;;;;;;1.13;0.60;;;17.80;91.50;;;;;;173096;28;1328;-73
2022/05/22 00:00:55;;;;;;;1.17;0.67;;;17.80;91.60;;;;;;173187;28;1234;-73
2022/05/22 00:01:01;;;;;;;1.30;0.70;;;17.80;91.60;;;;;;173571;28;951;-72
2022/05/22 00:01:07;;;;;;;1.20;0.75;;;17.80;91.60;;;;;;173845;28;867;-72
2022/05/22 00:01:15;;;;;;;1.40;0.80;;;17.80;91.70;;;;;;173507;28;1292;-72
2022/05/22 00:01:21;;;;;;;1.50;0.77;;;17.80;91.70;;;;;;173201;28;1513;-73
2022/05/22 00:01:26;;;;;;;1.33;0.68;;;17.80;91.70;;;;;;172171;28;1317;-71
2022/05/22 00:01:32;;;;;;;1.10;0.60;;;17.80;91.70;;;;;;172380;28;1268;-71
2022/05/22 00:01:38;;;;;;;1.27;0.60;;;17.80;91.70;;;;;;172313;28;1299;-72
2022/05/22 00:01:45;;;;;;;1.37;0.60;;;17.80;91.70;;;;;;172309;28;1117;-71
2022/05/22 00:01:51;;;;;;;1.00;0.60;;;17.80;91.70;;;;;;172471;28;1552;-72
2022/05/22 00:01:57;;;;;;;1.08;0.70;;;17.80;91.70;;;;;;173021;28;1216;-73
2022/05/22 00:02:04;;;;;;;1.18;0.76;;;17.80;91.70;;;;;;172949;28;1175;-73
2022/05/22 00:02:10;;;;;;;2.70;0.70;;;17.80;91.80;;;;;;172974;28;1946;-72
2022/05/22 00:02:16;;;;;;;2.70;0.70;;;17.80;91.80;;;;;;172892;28;1231;-71
2022/05/22 00:02:22;;;;;;;3.13;0.77;;;17.70;91.80;;;;;;173005;28;1506;-73
2022/05/22 00:02:27;;;;;;;3.47;0.77;;;17.80;91.90;;;;;;173105;28;847;-73
2022/05/22 00:02:34;;;;;;;3.33;0.70;;;17.70;91.90;;;;;;173583;28;1036;-72
2022/05/22 00:02:41;;;;;;;1.50;0.70;;;17.70;91.90;;;;;;173024;28;1261;-71
2022/05/22 00:02:48;;;;;;;2.14;0.68;;;17.70;92.00;;;;;;172885;28;1301;-72
2022/05/22 00:02:55;;;;;;;2.16;0.60;;;17.70;92.00;;;;;;173178;28;1040;-73
2022/05/22 00:03:01;;;;;;;2.17;0.70;;;17.70;92.00;;;;;;172992;28;1223;-73
2022/05/22 00:03:08;;;;;;;2.20;0.75;;;17.70;92.10;;;;;;173189;28;891;-73
2022/05/22 00:03:13;;;;;;;2.37;0.83;;;17.60;92.00;;;;;;172051;28;1372;-73
2022/05/22 00:03:19;;;;;;;1.33;0.90;;;17.60;92.10;;;;;;172549;28;935;-73
2022/05/22 00:03:25;;;;;;;1.42;0.90;;;17.60;92.10;;;;;;172606;28;1408;-72
2022/05/22 00:03:30;;;;;;;1.13;0.73;;;17.60;92.10;;;;;;173094;28;923;-72
2022/05/22 00:03:36;;;;;;;1.17;0.70;;;17.60;92.20;;;;;;172973;28;1134;-72
2022/05/22 00:03:43;;;;;;;1.13;0.70;;;17.60;92.30;;;;;;172867;28;1382;-73
2022/05/22 00:03:48;;;;;;;0.98;0.60;;;17.60;92.70;;;;;;173018;28;1474;-71
2022/05/22 00:03:54;;;;;;;1.00;0.60;;;17.50;92.40;;;;;;172836;28;1387;-73
2022/05/22 00:04:00;;;;;;;1.30;0.68;;;17.50;92.40;;;;;;173095;28;1415;-73
2022/05/22 00:04:06;;;;;;;1.52;0.63;;;17.50;92.40;;;;;;174259;28;1314;-73
2022/05/22 00:04:12;;;;;;;1.60;0.60;;;17.50;92.30;;;;;;173165;28;1224;-73
2022/05/22 00:04:19;;;;;;;2.55;0.70;;;17.50;92.30;;;;;;172857;28;1192;-73
2022/05/22 00:04:24;;;;;;;2.83;0.80;;;17.50;92.20;;;;;;173643;28;1386;-71
2022/05/22 00:04:30;;;;;;;2.80;0.75;;;17.50;92.20;;;;;;173827;28;1317;-72
2022/05/22 00:04:37;;;;;;;2.50;0.70;;;17.50;92.10;;;;;;173675;28;1365;-73
2022/05/22 00:04:42;;;;;;;2.33;0.67;;;17.50;92.10;;;;;;174373;28;1185;-72
2022/05/22 00:04:49;;;;;;;1.73;0.60;;;17.50;92.10;;;;;;173925;28;1330;-73
2022/05/22 00:04:54;;;;;;;2.45;0.60;;;17.50;92.00;;;;;;173014;28;1247;-74
2022/05/22 00:05:00;;;;;;;2.30;0.50;;;17.50;91.90;;;;;;172820;28;1121;-72
2022/05/22 00:05:10;;;;;;;2.30;0.60;;;17.50;91.90;;;;;;172543;28;1717;-71
2022/05/22 00:05:20;;;;;;;2.19;0.60;;;17.50;91.90;;;;;;173984;28;1096;-73
2022/05/22 00:05:26;;;;;;;0.95;0.60;;;17.60;91.90;;;;;;173971;28;1361;-72
2022/05/22 00:05:32;;;;;;;1.00;0.60;;;17.60;91.90;;;;;;173212;28;1064;-73
2022/05/22 00:05:38;;;;;;;1.10;0.70;;;17.60;91.90;;;;;;173185;28;1063;-73
2022/05/22 00:05:44;;;;;;;1.17;0.70;;;17.60;91.90;;;;;;173602;28;1247;-73
2022/05/22 00:05:50;;;;;;;1.10;0.60;;;17.60;91.80;;;;;;173682;28;963;-72
2022/05/22 00:05:55;;;;;;;1.13;0.67;;;17.60;91.80;;;;;;173847;28;1285;-72
2022/05/22 00:06:01;;;;;;;2.30;0.77;;;17.60;91.80;;;;;;173783;28;911;-73
2022/05/22 00:06:08;;;;;;;2.38;0.80;;;17.60;91.90;;;;;;173629;28;1141;-72
2022/05/22 00:06:14;;;;;;;3.00;0.80;;;17.60;91.90;;;;;;173328;28;1789;-73
2022/05/22 00:06:20;;;;;;;3.10;0.90;;;17.60;91.90;;;;;;172208;28;1277;-72
2022/05/22 00:06:26;;;;;;;2.96;0.90;;;17.60;91.90;;;;;;173327;28;1922;-72
2022/05/22 00:06:32;;;;;;;1.87;0.77;;;17.60;91.90;;;;;;173292;28;1231;-72
2022/05/22 00:06:37;;;;;;;1.70;0.65;;;17.60;91.90;;;;;;173909;28;1829;-71
2022/05/22 00:06:43;;;;;;;0.98;0.68;;;17.70;91.90;;;;;;174075;28;1054;-71
2022/05/22 00:06:49;;;;;;;0.93;0.60;;;17.60;91.90;;;;;;173217;28;1519;-72
2022/05/22 00:06:56;;;;;;;0.77;0.50;;;17.60;91.80;;;;;;172905;28;922;-72
2022/05/22 00:07:04;;;;;;;0.80;0.60;;;17.60;91.80;;;;;;173994;28;1571;-72
2022/05/22 00:07:10;;;;;;;2.18;0.60;;;17.70;91.90;;;;;;173971;28;1262;-71
2022/05/22 00:07:15;;;;;;;2.22;0.60;;;17.60;91.90;;;;;;174624;28;1580;-73
2022/05/22 00:07:21;;;;;;;2.45;0.65;;;17.60;91.90;;;;;;174478;28;1056;-72
2022/05/22 00:07:27;;;;;;;2.43;0.63;;;17.60;92.00;;;;;;174738;28;841;-71
2022/05/22 00:07:33;;;;;;;2.10;0.60;;;17.60;92.00;;;;;;174615;28;866;-73
2022/05/22 00:07:38;;;;;;;1.10;0.60;;;17.60;92.00;;;;;;173407;28;1155;-72
2022/05/22 00:07:44;;;;;;;1.10;0.57;;;17.60;92.00;;;;;;173463;28;1298;-73
2022/05/22 00:07:50;;;;;;;1.08;0.60;;;17.60;92.00;;;;;;173456;28;1124;-71
2022/05/22 00:07:56;;;;;;;0.93;0.60;;;17.60;92.00;;;;;;174434;28;1426;-73
2022/05/22 00:08:02;;;;;;;1.10;0.67;;;17.60;92.10;;;;;;174250;28;1199;-72
2022/05/22 00:08:08;;;;;;;1.00;0.70;;;17.60;92.20;;;;;;174337;28;1477;-72
2022/05/22 00:08:14;;;;;;;1.00;0.70;;;17.60;92.10;;;;;;173704;28;1461;-73
2022/05/22 00:08:20;;;;;;;0.90;0.70;;;17.60;92.10;;;;;;172123;28;3229;-71
2022/05/22 00:08:26;;;;;;;1.05;0.70;;;17.60;92.10;;;;;;173855;28;1396;-73
2022/05/22 00:08:32;;;;;;;1.05;0.70;;;17.50;92.00;;;;;;171971;28;1340;-73
2022/05/22 00:08:37;;;;;;;1.00;0.68;;;17.60;92.00;;;;;;172346;28;1686;-72
2022/05/22 00:08:43;;;;;;;1.03;0.67;;;17.60;92.00;;;;;;173089;28;1173;-72
2022/05/22 00:08:49;;;;;;;1.05;0.68;;;17.50;91.90;;;;;;173778;28;1700;-72
2022/05/22 00:08:55;;;;;;;0.93;0.60;;;17.60;91.90;;;;;;173641;28;983;-73
2022/05/22 00:09:01;;;;;;;0.75;0.60;;;17.60;91.90;;;;;;173767;28;1173;-72
2022/05/22 00:09:06;;;;;;;0.80;0.65;;;17.50;91.80;;;;;;173755;28;1250;-73
2022/05/22 00:09:12;;;;;;;0.90;0.60;;;17.60;91.80;;;;;;172085;28;1284;-71
2022/05/22 00:09:18;;;;;;;0.77;0.57;;;17.60;91.70;;;;;;173736;28;1438;-73
2022/05/22 00:09:24;;;;;;;0.70;0.50;;;17.60;91.70;;;;;;172734;28;1289;-72
2022/05/22 00:09:30;;;;;;;0.70;0.50;;;17.60;91.60;;;;;;172226;28;884;-73
2022/05/22 00:09:36;;;;;;;0.80;0.60;;;17.60;91.60;;;;;;172795;28;1097;-72
2022/05/22 00:09:42;;;;;;;1.13;0.60;;;17.60;91.50;;;;;;172411;28;989;-73
2022/05/22 00:09:47;;;;;;;1.05;0.60;;;17.60;91.50;;;;;;172423;28;1103;-72
2022/05/22 00:09:53;;;;;;;1.10;0.60;;;17.60;91.50;;;;;;173016;28;1155;-73
2022/05/22 00:10:01;;;;;;;1.15;0.65;;;17.60;91.50;;;;;;173209;28;986;-73
2022/05/22 00:10:08;;;;;;;1.00;0.57;;;17.60;91.50;;;;;;172983;28;1359;-72
2022/05/22 00:10:13;;;;;;;0.70;0.60;;;17.70;91.60;;;;;;173244;28;977;-73
2022/05/22 00:10:20;;;;;;;0.80;0.60;;;17.70;91.50;;;;;;172606;28;1189;-73
2022/05/22 00:10:26;;;;;;;1.02;0.72;;;17.60;91.50;;;;;;173103;28;1252;-73
2022/05/22 00:10:32;;;;;;;0.93;0.70;;;17.70;91.50;;;;;;172510;28;1223;-72
2022/05/22 00:10:38;;;;;;;1.00;0.80;;;17.60;91.40;;;;;;172506;28;848;-72
2022/05/22 00:10:44;;;;;;;1.08;0.75;;;17.70;91.50;;;;;;172516;28;1121;-73
2022/05/22 00:10:49;;;;;;;1.10;0.80;;;17.70;91.60;;;;;;172994;28;1083;-73
2022/05/22 00:10:55;;;;;;;1.20;0.70;;;17.70;91.60;;;;;;172996;28;1087;-71
2022/05/22 00:11:01;;;;;;;1.17;0.65;;;17.70;91.60;;;;;;173610;28;1495;-72
2022/05/22 00:11:06;;;;;;;1.20;0.60;;;17.70;91.60;;;;;;173850;28;914;-72
2022/05/22 00:11:12;;;;;;;1.15;0.70;;;17.60;91.60;;;;;;173412;28;1047;-72
2022/05/22 00:11:18;;;;;;;1.05;0.60;;;17.60;91.70;;;;;;173698;28;1311;-72
2022/05/22 00:11:24;;;;;;;0.93;0.50;;;17.60;91.70;;;;;;173697;28;1161;-72
2022/05/22 00:11:30;;;;;;;0.90;0.50;;;17.70;91.70;;;;;;173182;28;962;-72
2022/05/22 00:11:36;;;;;;;1.00;0.60;;;17.60;91.70;;;;;;173279;28;1626;-72
2022/05/22 00:11:41;;;;;;;1.03;0.57;;;17.60;91.70;;;;;;173630;28;1262;-73
2022/05/22 00:11:48;;;;;;;1.15;0.65;;;17.60;91.80;;;;;;173760;28;1711;-72
2022/05/22 00:11:55;;;;;;;1.36;0.80;;;17.60;91.80;;;;;;173571;28;1362;-73
2022/05/22 00:12:01;;;;;;;1.23;0.77;;;17.60;91.80;;;;;;173108;28;911;-73
2022/05/22 00:12:10;;;;;;;1.10;0.76;;;17.60;91.80;;;;;;172211;28;1237;-72
2022/05/22 00:12:16;;;;;;;1.20;0.90;;;17.60;91.80;;;;;;172927;28;1502;-72
2022/05/22 00:12:21;;;;;;;1.05;0.90;;;17.60;91.80;;;;;;173598;28;950;-73
2022/05/22 00:12:27;;;;;;;1.65;1.25;;;17.60;91.80;;;;;;174134;28;1041;-71
2022/05/22 00:12:33;;;;;;;1.75;1.40;;;17.60;91.80;;;;;;173633;28;1268;-72
2022/05/22 00:12:41;;;;;;;1.77;1.33;;;17.60;91.90;;;;;;173637;28;808;-72
2022/05/22 00:12:47;;;;;;;1.70;1.30;;;17.60;91.90;;;;;;173667;28;1351;-73
2022/05/22 00:12:53;;;;;;;1.60;1.22;;;17.60;91.90;;;;;;172460;28;888;-72
2022/05/22 00:12:59;;;;;;;1.30;0.80;;;17.50;91.80;;;;;;172660;28;1401;-73
2022/05/22 00:13:05;;;;;;;1.33;0.77;;;17.60;91.80;;;;;;173063;28;815;-72
2022/05/22 00:13:11;;;;;;;1.30;0.74;;;17.50;91.80;;;;;;173626;28;1587;-73
2022/05/22 00:13:17;;;;;;;1.27;0.57;;;17.60;91.80;;;;;;175193;28;1194;-71
2022/05/22 00:13:23;;;;;;;1.17;0.50;;;17.60;91.80;;;;;;173614;28;1146;-72
2022/05/22 00:13:28;;;;;;;0.77;0.50;;;17.50;91.80;;;;;;173732;28;1766;-73
2022/05/22 00:13:35;;;;;;;0.73;0.50;;;17.50;91.80;;;;;;172433;28;955;-72
2022/05/22 00:13:41;;;;;;;1.72;0.70;;;17.60;91.80;;;;;;174000;28;1013;-71
2022/05/22 00:13:47;;;;;;;2.30;0.77;;;17.60;91.80;;;;;;174410;28;1139;-71
2022/05/22 00:13:52;;;;;;;2.40;0.80;;;17.60;91.80;;;;;;173600;28;1567;-72
2022/05/22 00:13:58;;;;;;;2.45;0.80;;;17.60;91.90;;;;;;173766;28;1297;-74
2022/05/22 00:14:04;;;;;;;2.67;0.90;;;17.50;91.90;;;;;;172426;28;1298;-73
2022/05/22 00:14:11;;;;;;;1.78;0.80;;;17.50;91.90;;;;;;173735;28;990;-72
2022/05/22 00:14:18;;;;;;;1.00;0.62;;;17.50;91.90;;;;;;173271;28;1092;-72
2022/05/22 00:14:25;;;;;;;0.98;0.60;;;17.50;91.90;;;;;;173823;28;994;-72
2022/05/22 00:14:31;;;;;;;1.38;0.72;;;17.50;91.90;;;;;;173182;28;1128;-73
2022/05/22 00:14:39;;;;;;;1.77;0.80;;;17.50;91.90;;;;;;173858;28;1439;-72
2022/05/22 00:14:44;;;;;;;2.57;1.00;;;17.50;92.00;;;;;;172361;28;2016;-73
2022/05/22 00:14:50;;;;;;;2.80;1.10;;;17.50;92.00;;;;;;173045;28;1663;-71
2022/05/22 00:14:56;;;;;;;2.65;1.05;;;17.50;92.00;;;;;;172851;28;1337;-72
2022/05/22 00:15:03;;;;;;;2.30;0.90;;;17.50;92.00;;;;;;173190;28;1109;-73
2022/05/22 00:15:12;;;;;;;1.84;0.84;;;17.50;91.90;;;;;;173748;28;1469;-73
2022/05/22 00:15:18;;;;;;;1.19;0.74;;;17.50;92.00;;;;;;173277;28;1811;-73
2022/05/22 00:15:24;;;;;;;1.00;0.70;;;17.50;91.90;;;;;;173265;28;1155;-72
2022/05/22 00:15:30;;;;;;;0.98;0.70;;;17.50;91.90;;;;;;173972;28;835;-72
2022/05/22 00:16:35;;;;;;;0.98;0.73;;;17.50;91.80;;;;;;172837;28;1331;-72
2022/05/22 00:16:40;;;;;;;1.05;0.64;;;17.40;92.00;;;;;;173182;28;1160;-73
2022/05/22 00:16:47;;;;;;;1.16;0.70;;;17.40;91.90;;;;;;172764;28;1203;-74
2022/05/22 00:16:53;;;;;;;0.93;0.53;;;17.40;91.70;;;;;;172733;28;1969;-72
2022/05/22 00:16:59;;;;;;;1.17;0.53;;;17.40;91.60;;;;;;172858;28;1440;-73
2022/05/22 00:17:06;;;;;;;1.60;0.68;;;17.50;91.60;;;;;;173123;28;950;-73
2022/05/22 00:17:12;;;;;;;1.70;0.80;;;17.50;91.60;;;;;;172895;28;1206;-72
2022/05/22 00:17:18;;;;;;;1.70;0.83;;;17.50;91.50;;;;;;172942;28;1475;-73
2022/05/22 00:17:24;;;;;;;1.85;0.85;;;17.50;91.50;;;;;;172060;28;1021;-72
2022/05/22 00:17:30;;;;;;;1.50;0.80;;;17.50;91.50;;;;;;172515;28;862;-73
2022/05/22 00:17:35;;;;;;;1.13;0.73;;;17.50;91.50;;;;;;172345;28;1042;-73
2022/05/22 00:17:42;;;;;;;1.15;0.75;;;17.50;91.50;;;;;;172372;28;1025;-73
2022/05/22 00:17:47;;;;;;;1.23;0.77;;;17.50;91.50;;;;;;172703;28;1232;-73
2022/05/22 00:17:53;;;;;;;1.17;0.73;;;17.50;91.50;;;;;;172940;28;1765;-73
2022/05/22 00:17:59;;;;;;;1.65;0.80;;;17.50;91.50;;;;;;173152;28;808;-72
2022/05/22 00:18:05;;;;;;;1.58;0.77;;;17.50;91.60;;;;;;173546;28;1387;-73
2022/05/22 00:18:11;;;;;;;1.50;0.70;;;17.50;91.60;;;;;;173862;28;850;-72
2022/05/22 00:18:17;;;;;;;1.44;0.72;;;17.50;91.70;;;;;;173541;28;2718;-72
2022/05/22 00:18:23;;;;;;;1.33;0.70;;;17.50;91.70;;;;;;172459;28;1357;-72
2022/05/22 00:18:29;;;;;;;0.93;0.67;;;17.50;91.70;;;;;;174063;28;1152;-72
2022/05/22 00:18:34;;;;;;;0.95;0.60;;;17.50;91.80;;;;;;174385;28;1453;-73
2022/05/22 00:18:40;;;;;;;1.15;0.63;;;17.50;91.80;;;;;;173749;28;1224;-72
2022/05/22 00:18:46;;;;;;;1.05;0.52;;;17.50;91.90;;;;;;173542;28;1589;-72
2022/05/22 00:18:52;;;;;;;0.93;0.50;;;17.50;91.90;;;;;;173768;28;1292;-73
2022/05/22 00:18:57;;;;;;;1.45;0.60;;;17.50;91.90;;;;;;172815;28;1766;-72
2022/05/22 00:19:19;;;;;;;1.40;0.57;;;17.40;91.90;;;;;;173077;28;1045;-73
2022/05/22 00:19:28;;;;;;;1.30;0.60;;;17.40;92.00;;;;;;173005;28;1202;-73
2022/05/22 00:19:37;;;;;;;1.27;0.71;;;17.40;92.10;;;;;;173612;28;1448;-72
2022/05/22 00:19:42;;;;;;;1.35;0.78;;;17.40;92.20;;;;;;173755;28;934;-72
2022/05/22 00:19:48;;;;;;;1.83;0.80;;;17.30;92.20;;;;;;173698;28;1072;-73
2022/05/22 00:19:54;;;;;;;1.80;0.80;;;17.30;92.30;;;;;;173881;28;1208;-73
2022/05/22 00:19:59;;;;;;;1.83;0.75;;;17.30;92.30;;;;;;172956;28;1219;-71
2022/05/22 00:20:07;;;;;;;1.67;0.65;;;17.30;92.40;;;;;;173792;28;1239;-72
2022/05/22 00:20:13;;;;;;;1.70;0.70;;;17.30;92.40;;;;;;173213;28;914;-72
2022/05/22 00:20:19;;;;;;;1.53;0.80;;;17.30;92.50;;;;;;172459;28;1168;-73
2022/05/22 00:20:25;;;;;;;1.53;0.80;;;17.30;92.50;;;;;;173033;28;875;-72
2022/05/22 00:20:31;;;;;;;1.50;0.85;;;17.30;92.50;;;;;;172678;28;1200;-73
2022/05/22 00:20:36;;;;;;;1.42;0.90;;;17.30;92.50;;;;;;173756;28;947;-72
2022/05/22 00:20:42;;;;;;;1.20;0.83;;;17.30;92.60;;;;;;172648;28;1223;-71
2022/05/22 00:20:48;;;;;;;1.05;0.75;;;17.30;92.60;;;;;;172319;28;1159;-72
2022/05/22 00:20:53;;;;;;;0.93;0.68;;;17.20;92.50;;;;;;172452;28;973;-72
2022/05/22 00:20:59;;;;;;;0.97;0.70;;;17.20;92.60;;;;;;172297;28;1521;-73
2022/05/22 00:21:05;;;;;;;1.23;0.63;;;17.20;92.60;;;;;;172521;28;982;-71
2022/05/22 00:21:10;;;;;;;1.35;0.70;;;17.20;92.70;;;;;;171824;28;1158;-72
2022/05/22 00:21:16;;;;;;;1.60;0.80;;;17.20;92.70;;;;;;171578;28;1398;-72
2022/05/22 00:21:22;;;;;;;1.77;0.87;;;17.20;92.70;;;;;;171879;28;1384;-73
2022/05/22 00:21:28;;;;;;;1.90;0.90;;;17.10;92.80;;;;;;171793;28;986;-72
2022/05/22 00:21:35;;;;;;;1.50;0.90;;;17.20;92.80;;;;;;171821;28;1555;-72
2022/05/22 00:21:42;;;;;;;1.20;0.78;;;17.10;92.80;;;;;;174207;28;1491;-73
2022/05/22 00:21:49;;;;;;;1.00;0.72;;;17.10;92.80;;;;;;173092;28;1822;-72
2022/05/22 00:21:55;;;;;;;1.23;0.73;;;17.10;92.80;;;;;;172675;28;1669;-72
2022/05/22 00:22:02;;;;;;;1.17;0.70;;;17.10;92.80;;;;;;173106;28;1126;-72
2022/05/22 00:22:08;;;;;;;1.42;0.72;;;17.10;92.80;;;;;;173072;28;1292;-73
2022/05/22 00:22:14;;;;;;;1.35;0.75;;;17.10;92.80;;;;;;173268;28;1177;-73
2022/05/22 00:22:20;;;;;;;2.45;0.70;;;17.10;92.80;;;;;;173023;28;1309;-73
2022/05/22 00:22:26;;;;;;;2.03;0.60;;;17.10;92.80;;;;;;173023;28;1335;-72
2022/05/22 00:22:32;;;;;;;2.13;0.60;;;17.10;92.80;;;;;;173490;28;1416;-71
2022/05/22 00:22:38;;;;;;;2.10;0.60;;;17.10;92.80;;;;;;173084;28;1236;-72
2022/05/22 00:22:44;;;;;;;3.30;0.60;;;17.10;92.90;;;;;;172960;28;1239;-71
2022/05/22 00:22:50;;;;;;;2.42;0.63;;;17.10;92.90;;;;;;172983;28;1308;-72
2022/05/22 00:22:56;;;;;;;2.58;0.70;;;17.10;93.00;;;;;;171751;28;1347;-71
2022/05/22 00:23:01;;;;;;;2.40;0.65;;;17.10;93.00;;;;;;172497;28;951;-72
2022/05/22 00:23:07;;;;;;;2.30;0.60;;;17.10;93.00;;;;;;172676;28;1343;-71
2022/05/22 00:23:13;;;;;;;1.83;0.70;;;17.10;93.00;;;;;;172787;28;1177;-73
2022/05/22 00:23:18;;;;;;;1.15;0.70;;;17.10;93.00;;;;;;174130;28;1911;-73
2022/05/22 00:23:24;;;;;;;0.83;0.67;;;17.00;93.10;;;;;;173208;28;1322;-73
2022/05/22 00:23:33;;;;;;;1.02;0.70;;;17.00;93.10;;;;;;173015;28;1239;-73
2022/05/22 00:23:38;;;;;;;1.07;0.69;;;17.00;93.10;;;;;;172851;28;1556;-73
2022/05/22 00:23:45;;;;;;;1.10;0.70;;;17.00;93.10;;;;;;173123;28;2084;-72
2022/05/22 00:23:50;;;;;;;1.32;0.78;;;17.00;93.10;;;;;;172815;28;1350;-72
2022/05/22 00:23:56;;;;;;;1.73;0.90;;;16.90;93.20;;;;;;173081;28;1491;-72
2022/05/22 00:24:04;;;;;;;2.47;0.90;;;16.90;93.20;;;;;;172119;28;2167;-71
2022/05/22 00:24:12;;;;;;;3.10;1.00;;;16.90;93.20;;;;;;173118;28;1230;-73
2022/05/22 00:24:21;;;;;;;3.00;0.90;;;16.90;93.30;;;;;;172637;28;1548;-73
2022/05/22 00:24:29;;;;;;;2.38;0.70;;;16.90;93.30;;;;;;172907;28;1168;-71
2022/05/22 00:24:36;;;;;;;1.03;0.60;;;16.90;93.30;;;;;;173069;28;903;-72
2022/05/22 00:24:42;;;;;;;0.80;0.60;;;16.80;93.30;;;;;;172609;28;1276;-72
2022/05/22 00:24:47;;;;;;;0.80;0.60;;;16.90;93.40;;;;;;173776;28;867;-73
2022/05/22 00:24:53;;;;;;;0.73;0.60;;;16.90;93.40;;;;;;173593;28;1079;-72
2022/05/22 00:24:59;;;;;;;0.90;0.70;;;16.80;93.40;;;;;;173803;28;1488;-73
2022/05/22 00:25:05;;;;;;;1.00;0.80;;;16.80;93.40;;;;;;174480;28;1041;-72
2022/05/22 00:25:11;;;;;;;1.40;0.82;;;16.80;93.40;;;;;;173443;28;1815;-71
2022/05/22 00:25:17;;;;;;;1.63;0.90;;;16.80;93.50;;;;;;173661;28;1671;-72
2022/05/22 00:25:23;;;;;;;1.70;0.93;;;16.80;93.50;;;;;;173047;28;1374;-72
2022/05/22 00:25:28;;;;;;;1.47;0.80;;;16.80;93.50;;;;;;172964;28;1157;-73
2022/05/22 00:25:34;;;;;;;1.23;0.70;;;16.80;93.50;;;;;;172983;28;1162;-72
2022/05/22 00:25:40;;;;;;;1.05;0.70;;;16.80;93.50;;;;;;173048;28;1337;-71
2022/05/22 00:25:46;;;;;;;0.90;0.70;;;16.80;93.50;;;;;;173734;28;1038;-72
2022/05/22 00:25:55;;;;;;;0.82;0.60;;;16.80;93.50;;;;;;173646;28;2016;-72
2022/05/22 00:26:01;;;;;;;1.08;0.71;;;16.80;93.50;;;;;;174161;28;1116;-72
2022/05/22 00:26:07;;;;;;;1.45;0.80;;;16.80;93.50;;;;;;174490;28;917;-72
2022/05/22 00:26:13;;;;;;;1.35;0.70;;;16.80;93.60;;;;;;172992;28;1477;-72
2022/05/22 00:26:19;;;;;;;1.30;0.70;;;16.80;93.60;;;;;;173384;28;2258;-73
2022/05/22 00:26:24;;;;;;;1.20;0.60;;;16.80;93.60;;;;;;172835;28;1989;-72
2022/05/22 00:26:30;;;;;;;0.90;0.57;;;16.80;93.60;;;;;;172578;28;1429;-71
2022/05/22 00:26:36;;;;;;;0.50;0.50;;;16.80;93.60;;;;;;172182;28;1306;-73
2022/05/22 00:26:42;;;;;;;0.50;0.50;;;16.80;93.60;;;;;;172537;28;1444;-72
2022/05/22 00:26:48;;;;;;;0.50;0.50;;;16.80;93.60;;;;;;173186;28;1066;-72
2022/05/22 00:26:54;;;;;;;0.57;0.57;;;16.80;93.60;;;;;;172680;28;1321;-72
2022/05/22 00:27:02;;;;;;;0.67;0.60;;;16.80;93.70;;;;;;173695;28;1502;-72
2022/05/22 00:27:08;;;;;;;0.78;0.67;;;16.70;93.60;;;;;;171700;28;2049;-72
2022/05/22 00:27:13;;;;;;;0.90;0.70;;;16.70;93.60;;;;;;172576;28;1527;-72
2022/05/22 00:27:19;;;;;;;0.90;0.70;;;16.70;93.70;;;;;;173055;28;1224;-72
2022/05/22 00:27:26;;;;;;;0.88;0.63;;;16.70;93.70;;;;;;173031;28;1152;-71
2022/05/22 00:27:32;;;;;;;0.90;0.60;;;16.70;93.70;;;;;;173567;28;1315;-72
2022/05/22 00:27:42;;;;;;;0.90;0.60;;;16.70;93.70;;;;;;173540;28;1123;-72
2022/05/22 00:27:47;;;;;;;1.04;0.60;;;16.70;93.70;;;;;;173941;28;1279;-72
2022/05/22 00:27:54;;;;;;;1.10;0.60;;;16.70;93.70;;;;;;174285;28;1320;-73
2022/05/22 00:28:00;;;;;;;1.02;0.60;;;16.70;93.70;;;;;;174337;28;979;-72
2022/05/22 00:28:06;;;;;;;1.40;0.68;;;16.70;93.70;;;;;;174455;28;1300;-73
2022/05/22 00:28:11;;;;;;;1.40;0.70;;;16.70;93.70;;;;;;174511;28;1218;-72
2022/05/22 00:28:17;;;;;;;1.43;0.73;;;16.70;93.60;;;;;;174183;28;1944;-72
2022/05/22 00:28:23;;;;;;;1.60;0.80;;;16.70;93.60;;;;;;173822;28;978;-72
2022/05/22 00:28:28;;;;;;;1.60;0.90;;;16.70;93.80;;;;;;174230;28;1199;-73
2022/05/22 00:28:34;;;;;;;1.73;0.90;;;16.70;93.40;;;;;;174537;28;795;-73
2022/05/22 00:28:40;;;;;;;1.83;0.90;;;16.70;93.40;;;;;;174192;28;1362;-72
2022/05/22 00:28:45;;;;;;;1.80;0.90;;;16.70;93.40;;;;;;173942;28;1437;-72
2022/05/22 00:28:51;;;;;;;1.70;0.80;;;16.70;93.40;;;;;;173016;28;1187;-73
2022/05/22 00:28:57;;;;;;;1.85;0.90;;;16.70;93.40;;;;;;172184;28;1316;-72
2022/05/22 00:29:03;;;;;;;1.75;0.90;;;16.70;93.50;;;;;;172477;28;868;-71
2022/05/22 00:29:09;;;;;;;1.57;0.90;;;16.70;93.50;;;;;;172959;28;1088;-73
2022/05/22 00:29:16;;;;;;;1.67;0.90;;;16.70;93.50;;;;;;173134;28;899;-73
2022/05/22 00:29:22;;;;;;;1.54;0.90;;;16.70;93.60;;;;;;173332;28;1460;-73
2022/05/22 00:29:29;;;;;;;1.50;0.80;;;16.70;93.60;;;;;;173380;28;2137;-72
2022/05/22 00:29:36;;;;;;;1.32;0.78;;;16.70;93.60;;;;;;172818;28;1079;-71
2022/05/22 00:29:42;;;;;;;1.30;0.80;;;16.70;93.60;;;;;;172407;28;863;-73
2022/05/22 00:29:48;;;;;;;1.50;0.80;;;16.70;93.60;;;;;;173280;28;1226;-73
2022/05/22 00:29:53;;;;;;;1.40;0.80;;;16.70;93.60;;;;;;173762;28;1235;-73
2022/05/22 00:29:59;;;;;;;1.40;0.80;;;16.70;93.70;;;;;;173745;28;1125;-72
2022/05/22 00:30:06;;;;;;;1.27;0.70;;;16.70;93.70;;;;;;173976;28;1403;-72
2022/05/22 00:30:14;;;;;;;1.02;0.66;;;16.70;93.70;;;;;;173114;28;1013;-71
2022/05/22 00:30:20;;;;;;;0.90;0.70;;;16.70;93.70;;;;;;173118;28;1416;-72
2022/05/22 00:30:26;;;;;;;0.90;0.70;;;16.70;93.80;;;;;;173206;28;1029;-72
2022/05/22 00:30:31;;;;;;;1.05;0.70;;;16.70;93.70;;;;;;173196;28;1142;-73
2022/05/22 00:30:37;;;;;;;1.60;0.80;;;16.70;93.70;;;;;;172993;28;1174;-73
2022/05/22 00:30:43;;;;;;;1.40;0.70;;;16.70;93.70;;;;;;173129;28;1147;-73
2022/05/22 00:30:48;;;;;;;1.30;0.70;;;16.70;93.60;;;;;;172922;28;1635;-73
2022/05/22 00:30:54;;;;;;;1.60;0.77;;;16.70;93.60;;;;;;172424;28;1325;-72
2022/05/22 00:31:00;;;;;;;1.67;0.80;;;16.70;93.60;;;;;;172543;28;994;-73
2022/05/22 00:31:05;;;;;;;1.17;0.73;;;16.70;93.70;;;;;;172225;28;1629;-72
2022/05/22 00:31:12;;;;;;;1.20;0.70;;;16.70;93.70;;;;;;172274;28;1103;-71
2022/05/22 00:31:18;;;;;;;1.20;0.78;;;16.70;93.60;;;;;;172467;28;1178;-71
2022/05/22 00:31:24;;;;;;;0.93;0.68;;;16.70;93.50;;;;;;172076;28;1211;-73
2022/05/22 00:31:29;;;;;;;0.83;0.60;;;16.70;93.50;;;;;;173044;28;1018;-71
2022/05/22 00:31:35;;;;;;;0.82;0.60;;;16.70;93.40;;;;;;172732;28;1002;-72
2022/05/22 00:31:42;;;;;;;0.80;0.60;;;16.80;93.40;;;;;;172340;28;808;-71
2022/05/22 00:31:48;;;;;;;0.80;0.60;;;16.80;93.30;;;;;;172111;28;1270;-73
2022/05/22 00:31:54;;;;;;;0.77;0.63;;;16.80;93.30;;;;;;173117;28;990;-73
2022/05/22 00:32:00;;;;;;;0.83;0.63;;;16.80;93.20;;;;;;173254;28;1034;-72
2022/05/22 00:32:07;;;;;;;0.90;0.70;;;16.80;93.20;;;;;;172956;28;1388;-73
2022/05/22 00:32:13;;;;;;;0.83;0.68;;;16.80;93.10;;;;;;173742;28;1065;-73
2022/05/22 00:32:20;;;;;;;0.90;0.70;;;16.80;93.00;;;;;;173039;28;1266;-73
2022/05/22 00:32:25;;;;;;;0.90;0.70;;;16.80;93.00;;;;;;173575;28;981;-72
2022/05/22 00:32:31;;;;;;;0.77;0.70;;;16.80;93.00;;;;;;172808;28;1079;-72
2022/05/22 00:32:37;;;;;;;0.90;0.70;;;16.80;93.10;;;;;;173172;28;1024;-72
2022/05/22 00:32:43;;;;;;;0.88;0.65;;;16.80;93.10;;;;;;172690;28;1769;-72
2022/05/22 00:32:50;;;;;;;0.90;0.60;;;16.80;93.10;;;;;;173121;28;954;-72
2022/05/22 00:32:56;;;;;;;1.02;0.62;;;16.90;93.20;;;;;;172886;28;1339;-73
2022/05/22 00:33:02;;;;;;;1.33;0.70;;;16.90;93.20;;;;;;173129;28;950;-72
2022/05/22 00:33:08;;;;;;;1.20;0.70;;;16.80;93.20;;;;;;172230;28;1163;-72
2022/05/22 00:33:14;;;;;;;1.20;0.70;;;16.80;93.20;;;;;;172286;28;951;-72
2022/05/22 00:33:19;;;;;;;1.35;0.77;;;16.80;93.30;;;;;;172967;28;1226;-73
2022/05/22 00:33:29;;;;;;;1.23;0.73;;;16.80;93.30;;;;;;172901;28;1353;-73
2022/05/22 00:33:35;;;;;;;1.10;0.70;;;16.80;93.40;;;;;;173789;28;1331;-72
2022/05/22 00:33:41;;;;;;;1.13;0.73;;;16.80;93.40;;;;;;173725;28;1307;-72
2022/05/22 00:33:47;;;;;;;1.10;0.70;;;16.80;93.40;;;;;;173504;28;1441;-71
2022/05/22 00:33:52;;;;;;;1.00;0.70;;;16.80;93.50;;;;;;173632;28;1175;-73
2022/05/22 00:33:58;;;;;;;1.02;0.70;;;16.80;93.40;;;;;;173676;28;1545;-72
2022/05/22 00:34:05;;;;;;;0.95;0.65;;;16.80;93.40;;;;;;173039;28;1271;-73
2022/05/22 00:34:12;;;;;;;0.93;0.70;;;16.80;93.30;;;;;;173257;28;1101;-73
2022/05/22 00:34:18;;;;;;;1.00;0.70;;;16.80;93.20;;;;;;172767;28;1495;-71
2022/05/22 00:34:25;;;;;;;2.23;0.70;;;16.80;93.10;;;;;;173188;28;1695;-72